Tropical Cyclones
[Index]
Main Index Home Page Stock Weather Photos Extreme Storms Discussion Storm News and Storm Chasing Reports Tropical Cyclones / Hurricanes / Typhoons Weather Data and Links Wild Fires / Bushfires Weather Observation Techniques Weather Picture Catalogue Tornado Pictures and Reports Stock Video Footage and DVDs for sale
Season 2002-2003 Tropical Cyclone BENI Track Map
Season 2002-2003 Summaries (Operational Data): [AU] [SIO] [SPAC] [SH]
<<- Previous TC | 2002-2003 Season | Next TC ->>

click for intensity scale information  Lat/long Grid: Show Hide

 Date Labels: Show Hide

Operational Tropical Cyclone Data : JTWC Advisories

Name: BENI
Number: 0312

19 Jan 2003 21:00 UTC to 05 Feb 2003 00:00 UTC

    date/time    lat    long     hPa   cat  kts
2003-01-19 21    8.0   170.0    1005                     
2003-01-20 21   10.0   163.0    1006                     
2003-01-21 06   11.0   162.0    1004                     
2003-01-21 21   11.0   161.0    1006                     
2003-01-22 21   12.0   161.0    1005                     
2003-01-23 21   12.0   162.0    1002                     
2003-01-24 21   13.0   161.2     998         30          
2003-01-25 00   13.1   161.3     992    1    40          
2003-01-25 06   13.3   161.0     990    1    40          
2003-01-25 12   12.9   160.8     990    1    40          
2003-01-25 18   12.6   161.1     990    1    40          
2003-01-26 00   12.5   161.2     987    1    45          
2003-01-26 06   12.4   161.2     985    2    50          
2003-01-26 12   12.4   160.8     985    2    50          
2003-01-26 18   12.9   160.9     980    2    55          
2003-01-27 00   13.1   160.5     980    2    55          
2003-01-27 06   13.4   160.7     980    2    55          
2003-01-27 12   13.7   160.7     980    2    55          
2003-01-27 18   14.1   160.5     980    2    55          
2003-01-28 00   14.7   160.5     975    2    60          
2003-01-28 06   15.3   160.8     975    2    60          
2003-01-28 12   15.5   161.5     975    2    60          
2003-01-28 18   16.0   161.8     940    4    90          
2003-01-29 00   16.4   162.6     925    4   100          
2003-01-29 06   17.0   163.7     920    5   110          
2003-01-29 12   17.7   164.8     925    4   100          
2003-01-29 18   18.4   166.1     935    4    90          
2003-01-30 00   19.0   167.7     945    3    85          
2003-01-30 06   20.0   168.6     950    3    80          
2003-01-30 12   20.8   169.0     960    3    75          
2003-01-30 18   21.6   169.0     980    2    55          
2003-01-31 00   22.4   167.8     990    1    40          
2003-01-31 06   23.1   166.9     990    1    40          
2003-01-31 12   24.1   165.5     995    1    35          
2003-01-31 18   24.3   163.2     998         30          
2003-02-01 00   24.4   162.0     998         30          
2003-02-01 06   24.0   161.4     998         30          
2003-02-01 18   22.9   159.6     999         30          
2003-02-02 00   22.7   158.3     999         30          
2003-02-02 06   22.3   157.5    1000         30          
2003-02-02 12   21.5   156.5    1002         30          
2003-02-02 18   21.0   155.4    1000         30          
2003-02-02 23   21.1   154.7    1000         30          
2003-02-03 04   21.0   153.7    1001         30          
2003-02-03 11   20.3   153.3    1000         30          
2003-02-03 18   20.5   153.0     998         30          
2003-02-04 01   20.9   151.6     995    1    45          
2003-02-04 07   20.5   151.1     995    1    45          
2003-02-04 13   20.5   150.6     999         30          
2003-02-04 18   20.6   149.9    1002         30          
2003-02-05 00   21.0   149.6    1004         30          
Winds are 10-min average.

Tropical cyclone tracks developed by Michael Bath using operational warnings and advisories and Google Maps.


[Australian Severe Weather index] [Copyright Notice] [Email Contacts] [Search This Site] [Privacy Policy]
Document: tropical_cyclone_beni.htm Updated: 2 May 2017